Time;durP1;ratioP1;P1;durP2;ratioP2;P2;SDS_P1;SDS_P2;PMS_P1;PMS_P2;Temp;Humidity;BMP_temperature;BMP_pressure;BME280_temperature;BME280_humidity;BME280_pressure;Samples;Min_cycle;Max_cycle;Signal;HPM_P1;HPM_P2
2021/06/26 00:01:13;;;;;;;;;;;16.70;90.10;;;;;;5057218;28;20028;-75
2021/06/26 00:03:39;;;;;;;10.57;5.25;;;16.60;90.00;;;;;;5056567;28;19970;-74
2021/06/26 00:06:04;;;;;;;;;;;16.60;91.10;;;;;;5056747;28;20021;-73
2021/06/26 00:08:30;;;;;;;11.00;5.30;;;16.70;90.00;;;;;;5056348;28;19905;-74
2021/06/26 00:10:56;;;;;;;;;;;16.70;91.20;;;;;;5056675;28;20025;-74
2021/06/26 00:13:23;;;;;;;12.00;4.97;;;17.00;91.40;;;;;;5056239;28;19943;-74
2021/06/26 00:15:49;;;;;;;11.32;5.50;;;16.80;90.00;;;;;;5056192;28;20025;-74
2021/06/26 00:18:15;;;;;;;;;;;16.70;90.40;;;;;;5056610;28;20032;-74
2021/06/26 00:20:41;;;;;;;10.10;5.00;;;16.90;91.10;;;;;;5056564;28;20368;-73
2021/06/26 00:23:08;;;;;;;10.63;4.90;;;17.00;88.90;;;;;;5056036;28;20025;-75
2021/06/26 00:25:33;;;;;;;10.55;5.15;;;17.00;88.90;;;;;;5055923;28;20029;-74
2021/06/26 00:27:59;;;;;;;;;;;16.80;90.20;;;;;;5056392;28;20079;-74
2021/06/26 00:30:26;;;;;;;9.15;4.60;;;16.90;91.40;;;;;;5055966;28;20397;-73
2021/06/26 00:32:51;;;;;;;9.45;5.00;;;17.00;91.10;;;;;;5056090;28;20151;-73
2021/06/26 00:35:17;;;;;;;;;;;17.10;90.80;;;;;;5056258;28;20560;-73
2021/06/26 00:37:43;;;;;;;12.13;4.90;;;17.10;89.60;;;;;;5055693;28;19986;-74
2021/06/26 00:40:10;;;;;;;9.27;5.00;;;17.00;89.40;;;;;;5055775;28;20048;-75
2021/06/26 00:42:39;;;;;;;9.35;4.60;;;17.00;90.40;;;;;;5055662;28;20024;-75
2021/06/26 00:45:06;;;;;;;12.77;5.28;;;17.10;90.90;;;;;;5055571;28;20095;-73
2021/06/26 00:47:32;;;;;;;10.98;4.80;;;17.00;91.00;;;;;;5055601;28;20032;-74
2021/06/26 00:49:58;;;;;;;;;;;17.10;91.30;;;;;;5055971;28;20481;-73
2021/06/26 00:52:24;;;;;;;9.63;4.57;;;17.10;91.20;;;;;;5055536;28;19911;-74
2021/06/26 00:54:50;;;;;;;;;;;17.10;91.00;;;;;;5055880;28;20487;-73
2021/06/26 00:57:17;;;;;;;12.10;4.85;;;17.20;90.10;;;;;;5054192;28;19905;-74
2021/06/26 00:59:43;;;;;;;11.32;4.82;;;17.20;90.20;;;;;;5055506;28;20021;-73
2021/06/26 01:02:10;;;;;;;;;;;17.20;90.30;;;;;;5055390;28;20074;-74
2021/06/26 01:04:36;;;;;;;11.25;4.60;;;17.20;90.40;;;;;;5054242;28;19935;-74
2021/06/26 01:07:02;;;;;;;;;;;17.20;90.90;;;;;;5055657;28;20017;-74
2021/06/26 01:09:28;;;;;;;9.82;5.03;;;17.10;91.00;;;;;;5055181;28;19909;-73
2021/06/26 01:11:59;;;;;;;;;;;17.10;91.00;;;;;;5055584;28;20470;-76
2021/06/26 01:14:28;;;;;;;11.07;5.20;;;17.20;90.90;;;;;;5055306;28;19905;-74
2021/06/26 01:16:55;;;;;;;9.95;5.18;;;17.20;89.40;;;;;;5055096;28;20029;-72
2021/06/26 01:19:21;;;;;;;13.30;5.30;;;17.30;89.70;;;;;;5055049;28;20074;-74
2021/06/26 01:21:53;;;;;;;10.18;5.25;;;17.10;90.00;;;;;;5055154;28;20381;-75
2021/06/26 01:24:19;;;;;;;12.57;5.80;;;17.00;90.50;;;;;;5054831;28;20065;-71
2021/06/26 01:26:44;;;;;;;;;;;16.90;90.60;;;;;;5055295;28;20047;-74
2021/06/26 01:29:11;;;;;;;10.55;5.20;;;17.00;91.40;;;;;;5054833;28;19923;-74
2021/06/26 01:31:38;;;;;;;11.00;5.53;;;17.00;91.10;;;;;;5054812;28;20013;-73
2021/06/26 01:34:04;;;;;;;11.48;5.97;;;16.90;90.80;;;;;;5053448;28;20032;-74
2021/06/26 01:36:30;;;;;;;10.82;5.22;;;16.90;90.70;;;;;;5054493;28;20531;-74
2021/06/26 01:38:56;;;;;;;;;;;16.90;91.00;;;;;;5055300;28;20048;-72
2021/06/26 01:41:23;;;;;;;13.15;6.53;;;17.00;90.20;;;;;;5054919;28;19904;-74
2021/06/26 01:43:49;;;;;;;12.60;5.72;;;17.00;90.20;;;;;;5054640;28;20388;-73
2021/06/26 01:46:15;;;;;;;;;;;16.90;90.70;;;;;;5054826;28;20071;-74
2021/06/26 01:48:41;;;;;;;12.68;5.45;;;16.70;89.90;;;;;;5054679;28;19904;-72
2021/06/26 01:51:06;;;;;;;;;;;16.50;90.30;;;;;;5054828;28;20481;-74
2021/06/26 01:53:32;;;;;;;13.02;5.75;;;16.70;90.90;;;;;;5054409;28;19954;-74
2021/06/26 01:55:58;;;;;;;;;;;16.70;90.70;;;;;;5053400;28;20401;-74
2021/06/26 01:58:24;;;;;;;11.82;5.57;;;16.80;91.10;;;;;;5052959;28;19905;-74
2021/06/26 02:00:50;;;;;;;12.27;5.80;;;16.90;90.70;;;;;;5054650;28;20021;-73
2021/06/26 02:03:16;;;;;;;;;;;16.90;90.60;;;;;;5054573;28;20032;-74
2021/06/26 02:05:42;;;;;;;11.68;5.65;;;16.80;89.20;;;;;;5054048;28;19931;-73
2021/06/26 02:08:07;;;;;;;;;;;16.70;89.60;;;;;;5054574;28;20032;-73
2021/06/26 02:10:34;;;;;;;11.80;5.30;;;16.60;87.80;;;;;;5054073;28;20428;-75
2021/06/26 02:12:59;;;;;;;9.73;4.82;;;16.60;89.80;;;;;;5053984;28;20075;-72
2021/06/26 02:15:25;;;;;;;;;;;16.80;90.00;;;;;;5053928;28;20052;-72
2021/06/26 02:17:51;;;;;;;14.98;5.00;;;16.90;88.70;;;;;;5053927;28;19908;-74
2021/06/26 02:20:16;;;;;;;;;;;17.00;88.90;;;;;;5054260;28;20032;-72
2021/06/26 02:22:43;;;;;;;10.60;5.28;;;17.10;87.90;;;;;;5053778;28;20287;-73
2021/06/26 02:25:09;;;;;;;10.80;5.72;;;17.00;86.60;;;;;;5054325;28;20420;-72
2021/06/26 02:27:35;;;;;;;11.18;5.22;;;16.90;87.50;;;;;;5053717;28;20017;-74
2021/06/26 02:30:02;;;;;;;;;;;16.80;87.20;;;;;;5054104;28;20040;-73
2021/06/26 02:32:28;;;;;;;10.45;5.35;;;16.70;86.80;;;;;;5053575;28;19913;-73
2021/06/26 02:34:54;;;;;;;;;;;16.70;87.90;;;;;;5053910;28;20029;-74
2021/06/26 02:37:21;;;;;;;8.98;5.10;;;16.70;87.30;;;;;;5053636;28;20008;-74
2021/06/26 02:39:47;;;;;;;11.55;5.07;;;16.70;86.60;;;;;;5053823;28;20040;-73
2021/06/26 02:42:13;;;;;;;10.73;5.05;;;16.80;85.80;;;;;;5053465;28;20462;-73
2021/06/26 02:44:38;;;;;;;;;;;16.70;86.30;;;;;;5053845;28;20075;-75
2021/06/26 02:47:04;;;;;;;11.15;4.82;;;16.60;85.00;;;;;;5053467;28;19904;-73
2021/06/26 02:49:29;;;;;;;;;;;16.60;85.40;;;;;;5053777;28;20017;-74
2021/06/26 02:51:55;;;;;;;9.68;4.32;;;16.80;84.80;;;;;;5053315;28;19959;-74
2021/06/26 02:54:21;;;;;;;;;;;16.90;84.80;;;;;;5053716;28;20107;-73
2021/06/26 02:56:46;;;;;;;9.32;4.35;;;16.80;84.60;;;;;;5053399;28;19905;-73
2021/06/26 02:59:12;;;;;;;;;;;16.70;83.80;;;;;;5053653;28;20431;-74
2021/06/26 03:01:38;;;;;;;10.02;4.18;;;16.70;84.20;;;;;;5053227;28;20395;-73
2021/06/26 03:04:04;;;;;;;;;;;16.70;84.10;;;;;;5053640;28;20029;-74
2021/06/26 03:06:30;;;;;;;9.52;4.75;;;16.70;84.10;;;;;;5053202;28;19904;-74
2021/06/26 03:08:56;;;;;;;;;;;16.70;82.60;;;;;;5052247;28;20028;-75
2021/06/26 03:11:22;;;;;;;12.15;4.40;;;16.70;82.60;;;;;;5053050;28;19905;-74
2021/06/26 03:13:48;;;;;;;9.55;4.85;;;16.60;83.90;;;;;;5053104;28;20035;-73
2021/06/26 03:16:13;;;;;;;;;;;16.60;83.80;;;;;;5053452;28;20021;-73
2021/06/26 03:18:43;;;;;;;10.07;4.50;;;16.40;84.00;;;;;;5053195;28;19955;-73
2021/06/26 03:21:10;;;;;;;8.68;4.45;;;16.20;85.10;;;;;;5053126;28;20481;-75
2021/06/26 03:23:37;;;;;;;9.93;5.00;;;16.30;85.50;;;;;;5053132;28;20024;-74
2021/06/26 03:26:04;;;;;;;11.00;4.20;;;16.30;86.50;;;;;;5052082;28;20029;-73
2021/06/26 03:28:30;;;;;;;9.65;4.93;;;16.30;87.10;;;;;;5057372;28;20017;-74
2021/06/26 03:30:56;;;;;;;;;;;16.60;85.90;;;;;;5056304;28;20029;-75
2021/06/26 03:33:21;;;;;;;12.07;5.07;;;16.50;84.90;;;;;;5057196;28;19920;-73
2021/06/26 03:35:47;;;;;;;;;;;16.40;84.70;;;;;;5057502;28;20096;-74
2021/06/26 03:38:13;;;;;;;13.27;5.00;;;16.40;85.70;;;;;;5056667;28;20407;-74
2021/06/26 03:40:38;;;;;;;;;;;16.30;86.60;;;;;;5056128;28;20033;-72
2021/06/26 03:43:04;;;;;;;9.88;4.63;;;16.20;86.00;;;;;;5057173;28;19905;-74
2021/06/26 03:45:30;;;;;;;;;;;16.30;87.40;;;;;;5057372;28;20362;-72
2021/06/26 03:47:55;;;;;;;12.45;4.90;;;16.50;87.20;;;;;;5056957;28;19951;-74
2021/06/26 03:50:21;;;;;;;;;;;16.60;86.40;;;;;;5057596;28;20041;-74
2021/06/26 03:52:47;;;;;;;10.32;5.22;;;16.50;86.40;;;;;;5057092;28;19905;-74
2021/06/26 03:55:13;;;;;;;;;;;16.60;87.70;;;;;;5057166;28;20057;-74
2021/06/26 03:57:38;;;;;;;11.07;5.40;;;16.50;88.30;;;;;;5056804;28;19916;-73
2021/06/26 04:00:05;;;;;;;;;;;16.50;88.80;;;;;;5057032;28;20493;-74
2021/06/26 04:02:31;;;;;;;11.40;5.22;;;16.20;87.60;;;;;;5056764;28;19911;-72
2021/06/26 04:04:56;;;;;;;12.40;5.70;;;16.10;89.70;;;;;;5056372;28;20025;-73
2021/06/26 04:07:22;;;;;;;;;;;16.10;90.00;;;;;;5056963;28;20029;-73
2021/06/26 04:09:48;;;;;;;12.13;5.88;;;16.20;88.10;;;;;;5055215;28;19909;-72
2021/06/26 04:12:14;;;;;;;13.63;4.47;;;16.20;87.50;;;;;;5056455;28;20017;-73
2021/06/26 04:14:40;;;;;;;11.20;4.70;;;16.10;87.00;;;;;;5056815;28;20032;-75
2021/06/26 04:17:06;;;;;;;;;;;16.00;88.00;;;;;;5056915;28;20029;-74
2021/06/26 04:19:32;;;;;;;11.25;4.90;;;16.00;88.00;;;;;;5055038;28;20050;-74
2021/06/26 04:21:58;;;;;;;10.98;5.50;;;16.00;87.30;;;;;;5056377;28;20048;-74
2021/06/26 04:24:24;;;;;;;10.93;5.25;;;15.90;88.00;;;;;;5056047;28;20481;-74
2021/06/26 04:26:49;;;;;;;;;;;16.00;88.80;;;;;;5056747;28;20397;-73
2021/06/26 04:29:15;;;;;;;11.32;5.85;;;15.90;89.00;;;;;;5056229;28;19955;-74
2021/06/26 04:31:41;;;;;;;;;;;15.90;90.00;;;;;;5056552;28;20021;-74
2021/06/26 04:34:06;;;;;;;9.48;5.10;;;15.90;90.10;;;;;;5056046;28;19905;-74
2021/06/26 04:36:32;;;;;;;;;;;16.00;89.60;;;;;;5056194;28;20498;-74
2021/06/26 04:38:58;;;;;;;10.93;5.00;;;15.90;90.20;;;;;;5055888;28;19955;-74
2021/06/26 04:41:24;;;;;;;;;;;16.10;90.80;;;;;;5056450;28;20131;-74
2021/06/26 04:43:49;;;;;;;10.75;5.75;;;16.10;90.50;;;;;;5055932;28;19950;-73
2021/06/26 04:46:15;;;;;;;;;;;16.00;89.90;;;;;;5056186;28;20115;-73
2021/06/26 04:48:41;;;;;;;12.32;5.57;;;15.90;89.40;;;;;;5055782;28;19905;-74
2021/06/26 04:51:08;;;;;;;11.10;4.95;;;15.90;90.10;;;;;;5055771;28;20032;-73
2021/06/26 04:53:34;;;;;;;11.45;4.45;;;16.20;90.70;;;;;;5055677;28;20035;-74
2021/06/26 04:56:00;;;;;;;10.07;4.32;;;16.40;88.90;;;;;;5055600;28;20151;-73
2021/06/26 04:58:25;;;;;;;;;;;16.50;89.00;;;;;;5056200;28;20063;-73
2021/06/26 05:00:52;;;;;;;8.60;4.25;;;16.60;88.80;;;;;;5055678;28;19905;-72
2021/06/26 05:03:19;;;;;;;10.85;4.78;;;16.60;87.80;;;;;;5055483;28;20032;-73
2021/06/26 05:05:46;;;;;;;11.38;4.30;;;16.50;88.90;;;;;;5055375;28;20507;-73
2021/06/26 05:08:12;;;;;;;8.57;4.28;;;16.40;90.20;;;;;;5055394;28;20021;-74
2021/06/26 05:10:39;;;;;;;10.63;5.15;;;16.50;90.60;;;;;;5055477;28;20028;-75
2021/06/26 05:13:05;;;;;;;12.15;5.28;;;16.50;90.00;;;;;;5055306;28;20051;-74
2021/06/26 05:15:31;;;;;;;9.65;4.40;;;16.30;89.00;;;;;;5055231;28;20032;-74
2021/06/26 05:17:56;;;;;;;;;;;16.30;88.40;;;;;;5055602;28;20485;-74
2021/06/26 05:20:22;;;;;;;10.98;4.97;;;16.30;89.70;;;;;;5055216;28;19904;-74
2021/06/26 05:22:48;;;;;;;;;;;16.50;89.30;;;;;;5055380;28;20500;-73
2021/06/26 05:25:14;;;;;;;9.93;4.85;;;16.40;87.70;;;;;;5055025;28;19999;-73
2021/06/26 05:27:40;;;;;;;;;;;16.30;90.00;;;;;;5055465;28;20020;-74
2021/06/26 05:30:06;;;;;;;8.98;4.43;;;16.50;89.60;;;;;;5055159;28;19904;-75
2021/06/26 05:32:32;;;;;;;8.30;4.70;;;16.50;90.40;;;;;;5055225;28;20025;-73
2021/06/26 05:34:57;;;;;;;;;;;16.40;90.30;;;;;;5055326;28;20103;-72
2021/06/26 05:37:23;;;;;;;9.57;4.32;;;16.30;88.00;;;;;;5054683;28;20063;-72
2021/06/26 05:39:48;;;;;;;;;;;16.30;90.10;;;;;;5055227;28;20025;-72
2021/06/26 05:42:14;;;;;;;10.45;5.00;;;16.40;89.70;;;;;;5054798;28;19912;-73
2021/06/26 05:44:40;;;;;;;;;;;16.50;88.90;;;;;;5055073;28;20037;-73
2021/06/26 05:47:06;;;;;;;11.45;4.90;;;16.60;90.00;;;;;;5054728;28;19912;-73
2021/06/26 05:49:31;;;;;;;;;;;16.80;88.90;;;;;;5054358;28;20021;-73
2021/06/26 05:51:57;;;;;;;11.00;4.78;;;16.80;88.10;;;;;;5054609;28;19909;-73
2021/06/26 05:54:23;;;;;;;;;;;16.90;88.30;;;;;;5055168;28;20436;-73
2021/06/26 05:56:49;;;;;;;11.55;5.15;;;17.00;87.20;;;;;;5053184;28;19905;-75
2021/06/26 05:59:14;;;;;;;;;;;17.10;87.40;;;;;;5054816;28;20079;-74
2021/06/26 06:01:40;;;;;;;8.32;4.30;;;17.10;86.60;;;;;;5054413;28;19904;-75
2021/06/26 06:04:09;;;;;;;;;;;17.10;86.70;;;;;;5054690;28;20025;-75
2021/06/26 06:06:36;;;;;;;10.77;4.90;;;17.20;86.30;;;;;;5054282;28;19904;-74
2021/06/26 06:09:05;;;;;;;10.07;4.75;;;17.10;85.60;;;;;;5054441;28;20025;-73
2021/06/26 06:11:32;;;;;;;9.75;4.18;;;17.20;85.80;;;;;;5054206;28;20032;-74
2021/06/26 06:13:57;;;;;;;8.23;4.25;;;17.30;85.10;;;;;;5054161;28;20025;-72
2021/06/26 06:16:24;;;;;;;7.93;4.07;;;17.20;85.70;;;;;;5054039;28;20048;-73
2021/06/26 06:18:50;;;;;;;10.10;4.07;;;17.30;84.50;;;;;;5052765;28;20021;-73
2021/06/26 06:21:17;;;;;;;12.10;4.55;;;17.30;85.50;;;;;;5054033;28;20159;-74
2021/06/26 06:23:42;;;;;;;11.73;4.50;;;17.20;84.10;;;;;;5053895;28;20025;-75
2021/06/26 06:26:09;;;;;;;9.60;4.57;;;17.10;84.60;;;;;;5053823;28;20599;-73
2021/06/26 06:28:34;;;;;;;12.05;4.82;;;17.10;85.80;;;;;;5053849;28;20086;-73
2021/06/26 06:31:01;;;;;;;10.70;5.15;;;17.10;84.80;;;;;;5053789;28;20536;-72
2021/06/26 06:33:27;;;;;;;9.63;4.97;;;17.10;87.20;;;;;;5053939;28;20500;-74
2021/06/26 06:35:53;;;;;;;12.00;5.90;;;17.20;85.40;;;;;;5053761;28;20105;-73
2021/06/26 06:38:19;;;;;;;;;;;17.30;84.20;;;;;;5053787;28;20472;-73
2021/06/26 06:40:45;;;;;;;11.77;5.38;;;17.20;85.10;;;;;;5053765;28;19911;-75
2021/06/26 06:43:10;;;;;;;;;;;17.20;86.30;;;;;;5054446;28;20025;-75
2021/06/26 06:45:36;;;;;;;12.25;5.93;;;17.10;86.20;;;;;;5053928;28;19962;-75
2021/06/26 06:48:02;;;;;;;;;;;17.00;87.50;;;;;;5054094;28;20021;-73
2021/06/26 06:50:28;;;;;;;8.70;5.05;;;16.90;87.00;;;;;;5053680;28;20404;-74
2021/06/26 06:52:56;;;;;;;;;;;17.00;89.20;;;;;;5053909;28;20432;-74
2021/06/26 06:55:22;;;;;;;9.25;5.15;;;17.20;87.10;;;;;;5053845;28;19911;-73
2021/06/26 06:57:47;;;;;;;11.73;5.85;;;17.10;87.70;;;;;;5053593;28;20029;-73
2021/06/26 07:00:13;;;;;;;;;;;17.10;88.40;;;;;;5053752;28;20025;-73
2021/06/26 07:02:39;;;;;;;13.90;5.90;;;17.10;87.50;;;;;;5053406;28;19912;-74
2021/06/26 07:05:06;;;;;;;9.07;5.68;;;17.30;88.00;;;;;;5053235;28;20033;-72
2021/06/26 07:07:32;;;;;;;13.55;6.40;;;17.30;86.80;;;;;;5053463;28;20017;-74
2021/06/26 07:09:58;;;;;;;10.60;6.43;;;17.40;86.10;;;;;;5053205;28;20017;-75
2021/06/26 07:12:23;;;;;;;13.05;6.70;;;17.40;86.70;;;;;;5053226;28;20021;-72
2021/06/26 07:14:49;;;;;;;;;;;17.50;86.60;;;;;;5053592;28;20131;-72
2021/06/26 07:17:15;;;;;;;12.05;6.13;;;17.50;86.60;;;;;;5051894;28;19911;-74
2021/06/26 07:19:40;;;;;;;;;;;17.60;86.70;;;;;;5053749;28;20029;-74
2021/06/26 07:22:06;;;;;;;12.05;6.45;;;17.50;85.60;;;;;;5053373;28;20333;-74
2021/06/26 07:24:32;;;;;;;11.40;6.13;;;17.50;85.60;;;;;;5052958;28;20033;-73
2021/06/26 07:26:58;;;;;;;11.48;6.07;;;17.50;86.20;;;;;;5053109;28;20021;-73
2021/06/26 07:29:24;;;;;;;;;;;17.50;86.00;;;;;;5053452;28;20028;-74
2021/06/26 07:31:49;;;;;;;10.60;6.10;;;17.60;86.20;;;;;;5053352;28;20380;-74
2021/06/26 07:34:15;;;;;;;;;;;17.60;87.60;;;;;;5053450;28;20021;-73
2021/06/26 07:36:41;;;;;;;10.63;6.40;;;17.70;86.70;;;;;;5052393;28;19912;-74
2021/06/26 07:39:08;;;;;;;9.60;5.45;;;18.00;86.40;;;;;;5052482;28;20033;-74
2021/06/26 07:41:34;;;;;;;9.93;5.80;;;18.20;84.40;;;;;;5053118;28;20078;-73
2021/06/26 07:44:00;;;;;;;10.65;5.95;;;18.40;84.90;;;;;;5052891;28;20112;-74
2021/06/26 07:46:26;;;;;;;9.95;5.72;;;18.40;84.40;;;;;;5052846;28;20017;-75
2021/06/26 07:48:52;;;;;;;10.52;5.70;;;18.30;83.70;;;;;;5052896;28;20021;-72
2021/06/26 07:51:18;;;;;;;11.25;5.75;;;18.00;85.20;;;;;;5052850;28;20388;-73
2021/06/26 07:53:44;;;;;;;;;;;17.80;86.90;;;;;;5053355;28;20389;-74
2021/06/26 07:56:10;;;;;;;11.68;5.85;;;17.80;86.50;;;;;;5052802;28;19915;-74
2021/06/26 07:58:35;;;;;;;;;;;17.70;87.50;;;;;;5051919;28;20410;-74
2021/06/26 08:01:01;;;;;;;9.65;5.75;;;17.60;87.40;;;;;;5052969;28;20324;-73
2021/06/26 08:03:27;;;;;;;;;;;17.50;88.10;;;;;;5053409;28;20029;-75
2021/06/26 08:05:53;;;;;;;11.48;5.60;;;17.40;88.20;;;;;;5052695;28;19935;-74
2021/06/26 08:08:20;;;;;;;10.98;5.38;;;17.40;88.90;;;;;;5052601;28;20566;-72
2021/06/26 08:10:46;;;;;;;10.50;5.40;;;17.50;88.90;;;;;;5052656;28;20412;-74
2021/06/26 08:13:14;;;;;;;7.85;4.60;;;17.40;89.70;;;;;;5054721;28;20033;-75
2021/06/26 08:15:44;;;;;;;10.82;5.18;;;17.30;88.20;;;;;;5055111;28;20025;-74
2021/06/26 08:18:11;;;;;;;9.00;5.30;;;17.30;88.80;;;;;;5056360;28;20056;-75
2021/06/26 08:20:37;;;;;;;8.70;4.10;;;17.30;89.30;;;;;;5056310;28;20481;-74
2021/06/26 08:23:03;;;;;;;8.88;4.30;;;17.30;88.60;;;;;;5056196;28;20099;-75
2021/06/26 08:25:29;;;;;;;7.55;4.22;;;17.30;89.20;;;;;;5056124;28;20028;-75
2021/06/26 08:27:55;;;;;;;8.95;4.80;;;17.30;89.90;;;;;;5056312;28;20021;-74
2021/06/26 08:30:22;;;;;;;;;;;17.40;88.60;;;;;;5056704;28;20147;-74
2021/06/26 08:32:48;;;;;;;8.00;4.43;;;17.30;90.00;;;;;;5054819;28;19912;-73
2021/06/26 08:35:14;;;;;;;9.55;4.53;;;17.20;89.90;;;;;;5056025;28;20078;-74
2021/06/26 08:37:43;;;;;;;7.97;4.03;;;17.30;90.00;;;;;;5055858;28;20077;-74
2021/06/26 08:40:10;;;;;;;6.95;3.65;;;17.50;90.70;;;;;;5054480;28;20029;-75
2021/06/26 08:42:36;;;;;;;7.38;3.55;;;17.70;90.60;;;;;;5037853;28;20116;-74
2021/06/26 08:45:06;;;;;;;7.03;3.75;;;17.70;88.80;;;;;;5055655;28;20112;-75
2021/06/26 08:47:32;;;;;;;8.77;4.43;;;17.70;89.40;;;;;;5055979;28;20060;-74
2021/06/26 08:49:57;;;;;;;6.10;3.30;;;17.60;88.40;;;;;;5055832;28;20098;-74
2021/06/26 08:52:23;;;;;;;;;;;17.70;89.30;;;;;;5047954;28;20084;-74
2021/06/26 08:54:53;;;;;;;5.55;2.95;;;17.80;89.40;;;;;;5035401;28;20357;-75
2021/06/26 08:57:26;;;;;;;5.95;3.17;;;18.00;88.40;;;;;;5036313;28;20080;-74
2021/06/26 08:59:52;;;;;;;7.50;3.47;;;18.10;88.20;;;;;;5035652;28;20029;-74
2021/06/26 09:02:22;;;;;;;7.43;3.50;;;18.20;87.80;;;;;;5035356;28;20025;-75
2021/06/26 09:04:48;;;;;;;6.00;3.20;;;18.20;88.40;;;;;;5035315;28;20029;-75
2021/06/26 09:07:13;;;;;;;6.20;2.80;;;18.40;88.10;;;;;;5035455;28;20018;-75
2021/06/26 09:09:39;;;;;;;;;;;18.40;86.60;;;;;;5035805;28;20036;-74
2021/06/26 09:12:11;;;;;;;7.07;2.80;;;18.50;86.60;;;;;;5035026;28;19905;-75
2021/06/26 09:14:38;;;;;;;7.55;2.97;;;18.40;87.10;;;;;;5033866;28;20105;-74
2021/06/26 09:17:05;;;;;;;6.95;2.78;;;18.50;85.90;;;;;;5035609;28;20478;-74
2021/06/26 09:19:33;;;;;;;5.75;2.55;;;18.50;88.00;;;;;;5035003;28;20025;-75
2021/06/26 09:22:07;;;;;;;5.22;2.40;;;18.60;87.30;;;;;;5039225;28;20029;-73
2021/06/26 09:24:40;;;;;;;4.55;2.20;;;18.90;86.30;;;;;;5054208;28;20021;-75
2021/06/26 09:27:06;;;;;;;3.60;2.03;;;19.40;85.10;;;;;;5055303;28;20522;-75
2021/06/26 09:29:32;;;;;;;4.90;1.88;;;19.70;83.80;;;;;;5054828;28;20025;-75
2021/06/26 09:32:05;;;;;;;4.38;1.80;;;19.60;81.60;;;;;;5054888;28;20724;-76
2021/06/26 09:34:42;;;;;;;4.10;1.67;;;19.60;82.70;;;;;;5055177;28;20032;-73
2021/06/26 09:37:13;;;;;;;2.60;1.65;;;19.60;82.80;;;;;;5054551;28;20056;-75
2021/06/26 09:39:40;;;;;;;2.92;1.70;;;19.90;83.10;;;;;;5053666;28;20040;-74
2021/06/26 09:42:31;;;;;;;3.88;1.75;;;19.80;81.90;;;;;;5036323;28;20505;-73
2021/06/26 09:45:03;;;;;;;3.60;1.60;;;19.90;81.00;;;;;;5035130;28;20045;-73
2021/06/26 09:47:40;;;;;;;5.18;1.60;;;20.30;80.10;;;;;;5053569;28;20563;-75
2021/06/26 09:50:10;;;;;;;1.60;1.30;;;20.20;79.10;;;;;;5055163;28;20021;-74
2021/06/26 09:52:43;;;;;;;1.65;1.20;;;20.10;80.00;;;;;;5046337;28;20513;-73
2021/06/26 09:55:26;;;;;;;1.83;1.20;;;20.40;79.00;;;;;;5034499;28;20075;-74
2021/06/26 09:57:54;;;;;;;2.22;1.30;;;20.40;79.20;;;;;;5034531;28;20029;-75
2021/06/26 10:00:23;;;;;;;4.00;1.40;;;20.40;78.50;;;;;;5034472;28;20056;-75
2021/06/26 10:02:49;;;;;;;4.00;1.63;;;20.10;79.40;;;;;;5034345;28;20033;-74
2021/06/26 10:05:17;;;;;;;3.55;1.70;;;19.90;79.30;;;;;;5034521;28;20025;-73
2021/06/26 10:07:45;;;;;;;3.13;1.50;;;19.80;81.60;;;;;;5034587;28;20018;-73
2021/06/26 10:10:16;;;;;;;4.07;1.80;;;19.60;79.80;;;;;;5034529;28;20029;-75
2021/06/26 10:12:42;;;;;;;3.35;1.92;;;19.50;83.00;;;;;;5034234;28;20101;-75
2021/06/26 10:15:10;;;;;;;4.47;1.80;;;19.50;82.80;;;;;;5034425;28;20116;-74
2021/06/26 10:17:37;;;;;;;2.67;1.52;;;19.60;82.30;;;;;;5034091;28;20026;-74
2021/06/26 10:20:11;;;;;;;3.40;1.75;;;19.60;81.60;;;;;;5034103;28;20148;-74
2021/06/26 10:22:43;;;;;;;3.08;1.52;;;19.50;82.00;;;;;;5030997;28;20071;-75
2021/06/26 10:25:10;;;;;;;4.47;1.70;;;19.40;84.00;;;;;;5033113;28;20513;-74
2021/06/26 10:27:36;;;;;;;2.88;1.70;;;19.00;84.20;;;;;;5034347;28;20026;-73
2021/06/26 10:30:19;;;;;;;4.55;1.70;;;18.60;86.70;;;;;;5034151;28;20481;-74
2021/06/26 10:32:52;;;;;;;3.55;1.58;;;18.50;86.90;;;;;;5040265;28;20032;-74
2021/06/26 10:35:19;;;;;;;2.15;1.33;;;18.10;86.70;;;;;;5053795;28;20025;-73
2021/06/26 10:37:45;;;;;;;1.23;1.02;;;18.00;87.20;;;;;;5053858;28;20078;-74
2021/06/26 10:40:11;;;;;;;3.35;1.40;;;17.80;87.70;;;;;;5053708;28;20119;-74
2021/06/26 10:42:39;;;;;;;2.50;1.05;;;17.80;87.50;;;;;;5053609;28;20503;-75
2021/06/26 10:45:25;;;;;;;1.23;0.88;;;17.90;85.50;;;;;;5053582;28;20374;-75
2021/06/26 10:47:52;;;;;;;1.65;1.13;;;17.80;86.10;;;;;;5053702;28;20021;-74
2021/06/26 10:50:22;;;;;;;2.05;1.08;;;17.80;86.20;;;;;;5053041;28;20071;-75
2021/06/26 10:52:53;;;;;;;1.25;1.00;;;17.90;86.40;;;;;;5049507;28;20029;-75
2021/06/26 10:55:37;;;;;;;1.30;1.20;;;17.80;86.90;;;;;;5051465;28;20032;-74
2021/06/26 10:58:04;;;;;;;3.28;1.23;;;17.90;87.20;;;;;;5051438;28;20053;-75
2021/06/26 11:00:32;;;;;;;1.80;1.20;;;18.20;87.40;;;;;;5051341;28;20370;-75
2021/06/26 11:02:59;;;;;;;3.17;1.48;;;18.60;87.30;;;;;;5051319;28;20028;-76
2021/06/26 11:05:33;;;;;;;3.03;1.48;;;18.80;86.20;;;;;;5051277;28;20039;-75
2021/06/26 11:07:59;;;;;;;2.03;1.35;;;19.10;85.50;;;;;;5051665;28;20067;-76
2021/06/26 11:10:25;;;;;;;3.13;1.30;;;19.20;84.30;;;;;;5053272;28;20029;-76
2021/06/26 11:12:52;;;;;;;1.00;0.90;;;19.00;84.10;;;;;;5053235;28;20437;-76
2021/06/26 11:15:29;;;;;;;1.48;0.80;;;18.70;82.90;;;;;;5053216;28;20024;-74
2021/06/26 11:17:57;;;;;;;0.93;0.85;;;18.40;84.10;;;;;;5053190;28;20100;-77
2021/06/26 11:20:23;;;;;;;1.13;0.80;;;18.40;84.70;;;;;;5053141;28;20025;-77
2021/06/26 11:22:58;;;;;;;2.17;0.95;;;18.60;85.10;;;;;;5053063;28;20100;-76
2021/06/26 11:25:29;;;;;;;0.88;0.80;;;18.40;86.10;;;;;;5053267;28;20040;-75
2021/06/26 11:28:15;;;;;;;0.93;0.82;;;18.60;85.90;;;;;;5053103;28;20035;-76
2021/06/26 11:30:43;;;;;;;0.93;0.73;;;18.70;82.70;;;;;;5052994;28;20028;-75
2021/06/26 11:33:09;;;;;;;0.80;0.80;;;18.80;82.50;;;;;;5052971;28;20573;-75
2021/06/26 11:35:40;;;;;;;0.85;0.80;;;19.20;82.30;;;;;;5052988;28;20104;-75
2021/06/26 11:38:15;;;;;;;1.10;0.95;;;19.40;81.30;;;;;;5052888;28;20052;-76
2021/06/26 11:40:41;;;;;;;1.98;0.80;;;19.50;82.40;;;;;;5053022;28;20028;-77
2021/06/26 11:43:07;;;;;;;2.88;1.00;;;19.40;81.20;;;;;;5052943;28;20116;-78
2021/06/26 11:45:46;;;;;;;1.02;0.90;;;19.40;82.70;;;;;;5053125;28;20099;-75
2021/06/26 11:48:17;;;;;;;0.70;0.70;;;19.60;81.80;;;;;;5055259;28;20025;-75
2021/06/26 11:50:57;;;;;;;1.05;0.90;;;19.50;79.90;;;;;;5057360;28;20024;-75
2021/06/26 11:53:28;;;;;;;2.65;1.30;;;19.40;83.40;;;;;;5057048;28;20025;-76
2021/06/26 11:55:59;;;;;;;2.85;1.30;;;19.30;85.20;;;;;;5057334;28;20028;-76
2021/06/26 11:58:52;;;;;;;1.80;1.30;;;19.20;85.40;;;;;;5055267;28;20036;-77
2021/06/26 12:01:31;;;;;;;3.65;1.70;;;18.90;86.10;;;;;;5057112;28;20715;-77
2021/06/26 12:04:03;;;;;;;2.15;1.30;;;18.90;87.30;;;;;;5055064;28;20055;-75
2021/06/26 12:06:33;;;;;;;2.90;1.10;;;18.90;85.80;;;;;;5056594;28;20112;-75
2021/06/26 12:09:00;;;;;;;2.78;1.45;;;18.90;85.90;;;;;;5056523;28;20036;-77
2021/06/26 12:11:31;;;;;;;3.53;1.50;;;19.00;85.40;;;;;;5056688;28;20025;-76
2021/06/26 12:13:59;;;;;;;2.35;1.35;;;19.00;85.50;;;;;;5056506;28;20109;-77
2021/06/26 12:16:31;;;;;;;2.70;1.30;;;18.80;85.10;;;;;;5056492;28;20431;-76
2021/06/26 12:19:00;;;;;;;2.25;1.20;;;18.60;85.60;;;;;;5056602;28;20025;-76
2021/06/26 12:21:43;;;;;;;3.95;1.20;;;18.60;86.80;;;;;;5056474;28;20026;-76
2021/06/26 12:24:11;;;;;;;2.42;1.10;;;18.80;85.20;;;;;;5056265;28;20033;-77
2021/06/26 12:26:36;;;;;;;1.27;1.13;;;18.90;85.20;;;;;;5056145;28;20048;-77
2021/06/26 12:29:03;;;;;;;1.85;1.02;;;18.90;83.60;;;;;;5056211;28;20051;-76
2021/06/26 12:31:40;;;;;;;1.83;1.00;;;19.10;84.70;;;;;;5056138;28;20071;-76
2021/06/26 12:34:06;;;;;;;3.47;1.23;;;19.30;84.80;;;;;;5056201;28;20025;-75
2021/06/26 12:36:33;;;;;;;1.15;0.95;;;19.30;84.10;;;;;;5054556;28;20509;-75
2021/06/26 12:38:59;;;;;;;1.67;0.90;;;19.10;82.20;;;;;;5056102;28;20586;-75
2021/06/26 12:41:26;;;;;;;1.15;0.88;;;18.90;82.80;;;;;;5055885;28;20025;-76
2021/06/26 12:43:59;;;;;;;1.00;0.90;;;19.10;84.30;;;;;;5055890;28;20095;-76
2021/06/26 12:46:26;;;;;;;1.60;0.98;;;19.20;84.10;;;;;;5056066;28;20025;-77
2021/06/26 12:48:54;;;;;;;2.00;0.80;;;19.10;84.10;;;;;;5055770;28;20028;-75
2021/06/26 12:51:31;;;;;;;1.60;0.80;;;19.20;85.00;;;;;;5054439;28;20045;-76
2021/06/26 12:53:57;;;;;;;0.63;0.63;;;19.30;86.40;;;;;;5055671;28;20021;-76
2021/06/26 12:56:32;;;;;;;3.03;0.93;;;19.30;84.80;;;;;;5055618;28;20025;-76
2021/06/26 12:59:08;;;;;;;2.33;0.90;;;19.50;84.40;;;;;;5055414;28;20039;-75
2021/06/26 13:01:52;;;;;;;1.02;0.90;;;19.50;85.00;;;;;;5055746;28;20048;-76